Terminal Aerodrome Forecast
Issued by NWS

Home | Current Version | Previous Version | Text Only | Print | Product List | Glossary On
Versions: 1 2 3 4 5 6 7 8 9 10 11 12 13 14 15 16 17 18 19 20 21 22 23 24 25 26 27
000
FTUS41 KBUF 222000 AAA
TAFIAG
TAF AMD
KIAG 222033Z 2221/2318 23012KT P6SM SKC
     FM230000 20008KT P6SM SCT250
     FM230700 21011KT P6SM SCT250
     FM231100 23013KT P6SM BKN035
     FM231200 24012G20KT P6SM -SHRA OVC035
     FM231400 27009KT P6SM -SHRA OVC030
     FM231700 31009KT P6SM BKN030=

USA.gov is the U.S. government's official web portal to all federal, state and local government web resources and services.